• Join FlightAware (Why Join?)
  • Login
  • US Flag 
01:14PM EDT


 

Airport Tracker/Info


-or-


 

Live Flight TrackerFlight Track Log ✈ ASQ4605 ✈ 09-May-2013 ✈ CYYZ - KCLE

Flight Track Log - Related Links

Times and Time Zones

All times are in EDT time to prevent confusion due to time zone crossing. See the ASQ4605 flight status page for this flight to view local times or setup timezone preferences in your user account.

Time Position Orientation Groundspeed Altitude Reporting Facility
EDT Latitude Longitude Course Direction KTS MPH feet Rate Location/Type
03:22PM 43.6333 -79.6333 194° South 170 196 2,700  Level Toronto Center
03:23PM 43.5833 -79.7000 224° Southwest 220 253 4,900 2,100 Climbing Toronto Center
03:24PM 43.5167 -79.7167 190° South 250 288 7,000 2,160 Climbing Toronto Center
03:25PM 43.4500 -79.7167 180° South 280 322 9,300 2,340 Climbing Toronto Center
03:26PM 43.3667 -79.7500 196° South 290 334 11,700 2,220 Climbing Toronto Center
03:27PM 43.2833 -79.7667 188° South 300 345 13,800 1,800 Climbing Toronto Center
03:28PM 43.0680 -79.7329 194° South  Level FlightAware Approximate
03:28PM 43.2000 -79.8167 204° Southwest 310 357 15,300  Level Toronto Center
03:29PM 43.1167 -79.8333 188° South 340 391 16,400 1,020 Climbing Toronto Center
03:30PM 43.0167 -79.8833 200° South 370 426 17,400 1,020 Climbing Toronto Center
03:31PM 42.9000 -79.9333 197° South 390 449 18,500 960 Climbing Toronto Center
03:32PM 42.8233 -79.9831 205° Southwest 402 463 19,300 960 Climbing Cleveland Center
03:33PM 42.7194 -80.0519 206° Southwest 422 486 20,300 1,020 Climbing Cleveland Center
03:34PM 42.6261 -80.1403 215° Southwest 412 474 21,400 840 Climbing Cleveland Center
03:35PM 42.5306 -80.2339 216° Southwest 419 482 22,000 240 Climbing Cleveland Center
03:36PM 42.4267 -80.3244 213° Southwest 435 501 21,900 -600 Descending Cleveland Center
03:37PM 42.3308 -80.4175 216° Southwest 440 506 20,900 -1,200 Descending Cleveland Center
03:38PM 42.2331 -80.5075 214° Southwest 435 501 19,600 -1,440 Descending Cleveland Center
03:39PM 42.1350 -80.5972 214° Southwest 441 507 18,100 -1,320 Descending Cleveland Center
03:40PM 42.0494 -80.6697 212° Southwest 425 489 17,000 -1,020 Descending Cleveland Center
03:41PM 41.9411 -80.7031 193° South 407 468 16,100 -900 Descending Cleveland Center
03:42PM 41.8369 -80.7419 196° South 394 453 15,200 -960 Descending Cleveland Center
03:43PM 41.7431 -80.7725 194° South 370 426 14,200 -1,020 Descending Cleveland Center
03:44PM 41.6719 -80.8556 221° Southwest 340 391 13,200 -1,080 Descending Cleveland Center
03:45PM 41.6133 -80.9664 235° Southwest 335 386 12,100 -1,440 Descending Cleveland Center
03:46PM 41.5775 -81.0411 237° Southwest 331 381 10,800 -1,620 Descending Cleveland Center
03:46PM 41.5608 -81.0717 234° Southwest 335 386 10,500 -600 Descending Cleveland Center
03:47PM 41.5144 -81.1739 239° Southwest 335 386 10,000 -300 Descending Cleveland Center
03:48PM 41.4992 -81.2872 260° West 318 366 10,000  Level Cleveland Center
03:49PM 41.4839 -81.4008 260° West 308 354 10,000 -60 Level Cleveland Center
03:50PM 41.4558 -81.5114 251° West 310 357 9,900 -660 Descending Cleveland Center
03:51PM 41.4258 -81.6161 249° West 266 306 8,700 -1,020 Descending Cleveland Center
03:52PM 41.4042 -81.6906 249° West 273 314 7,900 -1,020 Descending Cleveland Center
03:53PM 41.3578 -81.7644 230° Southwest 265 305 6,900 -1,200 Descending Cleveland Center
03:54PM 41.3111 -81.8381 230° Southwest 270 311 5,600 -1,200 Descending Cleveland Center
03:55PM 41.2664 -81.9147 232° Southwest 270 311 4,600 -1,140 Descending Cleveland Center
03:56PM 41.3181 -81.9600 327° Northwest 221 254 3,200 -1,260 Descending Cleveland Center
03:57PM 41.3642 -81.9278 28° Northeast 166 191 1,900 -1,080 Descending Cleveland Center
03:58PM 41.3917 -81.8894 46° Northeast 135 155 1,100 -840 Descending Cleveland Center